Time;durP1;ratioP1;P1;durP2;ratioP2;P2;SDS_P1;SDS_P2;PMS_P1;PMS_P2;Temp;Humidity;BMP_temperature;BMP_pressure;BME280_temperature;BME280_humidity;BME280_pressure;Samples;Min_cycle;Max_cycle;Signal;HPM_P1;HPM_P2
2022/04/25 00:01:20;;;;;;;;;11.75;10.00;;;;;21.36;36.76;100307.34;5077054;27;45311;-59
2022/04/25 00:03:46;;;;;;;;;10.25;8.75;;;;;21.34;36.33;100304.81;5077934;28;45366;-59
2022/04/25 00:06:11;;;;;;;;;11.00;10.25;;;;;21.35;36.53;100305.66;5078007;27;45319;-58
2022/04/25 00:08:37;;;;;;;;;9.50;9.50;;;;;21.36;36.51;100307.34;5077770;28;45525;-59
2022/04/25 00:11:03;;;;;;;;;6.75;6.75;;;;;21.35;36.85;100310.91;5076927;28;45501;-59
2022/04/25 00:13:28;;;;;;;;;10.00;9.00;;;;;21.35;36.68;100305.66;5077451;27;45343;-59
2022/04/25 00:15:54;;;;;;;;;11.00;9.75;;;;;21.35;36.92;100305.66;5077596;27;45248;-58
2022/04/25 00:18:19;;;;;;;;;8.00;8.00;;;;;21.35;36.85;100300.38;5077727;28;45573;-57
2022/04/25 00:20:45;;;;;;;;;7.75;7.75;;;;;21.32;36.74;100301.44;5077600;28;46531;-59
2022/04/25 00:23:10;;;;;;;;;8.75;8.25;;;;;21.31;36.69;100300.59;5077359;28;45224;-59
2022/04/25 00:25:36;;;;;;;;;11.00;8.50;;;;;21.34;36.47;100298.69;5077377;28;45181;-59
2022/04/25 00:28:03;;;;;;;;;8.25;7.00;;;;;21.35;36.35;100300.38;5059423;28;45260;-59
2022/04/25 00:30:29;;;;;;;;;8.00;8.00;;;;;21.34;36.55;100296.91;5076962;28;45514;-58
2022/04/25 00:32:58;;;;;;;;;12.25;7.00;;;;;21.33;36.35;100297.84;5077144;28;45449;-58
2022/04/25 00:35:24;;;;;;;;;9.00;8.00;;;;;21.33;36.85;100294.38;5077432;28;45284;-58
2022/04/25 00:37:51;;;;;;;;;10.75;8.25;;;;;21.31;36.89;100291.84;5077460;27;45326;-58
2022/04/25 00:40:23;;;;;;;;;7.25;7.00;;;;;21.34;36.55;100298.69;5077506;28;46405;-59
2022/04/25 00:42:49;;;;;;;;;9.75;8.00;;;;;21.31;36.84;100295.34;5058905;28;45815;-59
2022/04/25 00:45:15;;;;;;;;;9.50;9.00;;;;;21.31;36.46;100295.34;5077220;28;45410;-59
2022/04/25 00:47:43;;;;;;;;;7.50;7.50;;;;;21.31;36.76;100300.59;5077261;28;45226;-58
2022/04/25 00:50:10;;;;;;;;;10.00;8.75;;;;;21.31;36.76;100297.97;5076187;28;45436;-58
2022/04/25 00:52:36;;;;;;;;;11.00;7.00;;;;;21.31;36.50;100307.66;5076958;28;45869;-57
2022/04/25 00:55:04;;;;;;;;;9.00;8.50;;;;;21.31;36.74;100303.25;5058570;28;45268;-58
2022/04/25 00:57:30;;;;;;;;;8.00;7.50;;;;;21.30;36.59;100298.91;5077169;28;45307;-58
2022/04/25 00:59:57;;;;;;;;;7.50;7.50;;;;;21.30;36.43;100304.19;5076839;27;45259;-57
2022/04/25 01:02:25;;;;;;;;;11.00;10.00;;;;;21.30;36.75;100304.19;5076736;28;45842;-57
2022/04/25 01:04:50;;;;;;;;;9.50;9.50;;;;;21.30;36.67;100303.31;5076866;28;45396;-57
2022/04/25 01:07:16;;;;;;;;;10.00;9.00;;;;;21.29;36.65;100305.13;5077146;27;45302;-58
2022/04/25 01:09:41;;;;;;;;;10.75;9.00;;;;;21.31;36.69;100305.00;5076576;28;45263;-58
2022/04/25 01:12:07;;;;;;;;;8.50;7.50;;;;;21.28;36.60;100306.06;5058220;28;45519;-58
2022/04/25 01:14:32;;;;;;;;;10.00;9.25;;;;;21.29;36.37;100307.75;5058612;28;45359;-57
2022/04/25 01:16:57;;;;;;;;;9.00;8.25;;;;;21.29;36.45;100307.75;5076842;27;45461;-58
2022/04/25 01:19:23;;;;;;;;;8.00;8.00;;;;;21.30;36.72;100308.59;5076554;28;45819;-58
2022/04/25 01:21:57;;;;;;;;;11.50;9.25;;;;;21.29;36.89;100301.63;5076904;28;45218;-58
2022/04/25 01:27:17;;;;;;;;;9.75;9.75;;;;;21.28;36.40;100300.81;5076896;28;45228;-58
2022/04/25 01:29:44;;;;;;;;;10.00;8.00;;;;;21.27;36.54;100296.47;5075499;28;45643;-59
2022/04/25 01:32:10;;;;;;;;;7.50;5.00;;;;;21.27;36.80;100298.28;5076487;28;45386;-59
2022/04/25 01:34:37;;;;;;;;;8.75;8.75;;;;;21.27;36.84;100287.72;5076576;28;45375;-58
2022/04/25 01:37:06;;;;;;;;;7.00;7.00;;;;;21.26;36.40;100300.06;5076638;28;45390;-57
2022/04/25 01:39:33;;;;;;;;;9.25;9.25;;;;;21.24;36.61;100291.41;5041524;28;46275;-58
2022/04/25 01:41:59;;;;;;;;;9.00;7.50;;;;;21.25;36.77;100298.34;5058256;28;46217;-57
2022/04/25 01:44:24;;;;;;;;;8.25;8.25;;;;;21.27;36.62;100306.19;5076513;28;45204;-58
2022/04/25 01:46:49;;;;;;;;;9.50;8.00;;;;;21.27;36.88;100306.19;5076858;28;45301;-58
2022/04/25 01:49:15;;;;;;;;;9.25;8.50;;;;;21.27;36.49;100308.81;5076152;28;45280;-58
2022/04/25 01:51:40;;;;;;;;;8.75;8.75;;;;;21.27;36.77;100306.19;5076130;27;46382;-57
2022/04/25 01:54:05;;;;;;;;;8.25;7.25;;;;;21.24;36.23;100307.22;5058191;28;45785;-58
2022/04/25 01:56:32;;;;;;;;;9.25;9.25;;;;;21.26;36.48;100313.22;5076430;27;45462;-57
2022/04/25 01:58:57;;;;;;;;;9.25;8.50;;;;;21.26;36.37;100310.59;5075145;28;46200;-57
2022/04/25 02:01:23;;;;;;;;;8.25;7.50;;;;;21.25;36.92;100313.34;5057711;28;46396;-57
2022/04/25 02:03:48;;;;;;;;;7.75;7.75;;;;;21.23;36.56;100310.78;5076688;28;45641;-58
2022/04/25 02:06:14;;;;;;;;;6.75;5.00;;;;;21.25;36.57;100318.63;5076296;27;45252;-59
2022/04/25 02:08:39;;;;;;;;;10.50;9.25;;;;;21.25;36.57;100323.88;5075914;28;46153;-58
2022/04/25 02:11:20;;;;;;;;;7.75;7.00;;;;;21.24;36.54;100320.38;5075670;28;54819;-58
2022/04/25 02:13:46;;;;;;;;;6.50;6.50;;;;;21.24;36.25;100325.66;5076067;28;45255;-58
2022/04/25 02:16:11;;;;;;;;;7.50;7.25;;;;;21.23;36.43;100318.69;5076202;28;45530;-58
2022/04/25 02:18:40;;;;;;;;;8.00;8.00;;;;;21.21;36.33;100328.53;5075817;28;45673;-57
2022/04/25 02:21:05;;;;;;;;;9.50;7.00;;;;;21.24;36.28;100325.66;5075768;28;45872;-58
2022/04/25 02:23:31;;;;;;;;;6.00;5.50;;;;;21.23;36.51;100326.59;5077611;28;45330;-58
2022/04/25 02:25:56;;;;;;;;;7.75;7.00;;;;;21.24;36.63;100324.81;5079561;28;45387;-58
2022/04/25 02:28:22;;;;;;;;;7.50;7.50;;;;;21.23;36.67;100323.13;5078856;28;45394;-58
2022/04/25 02:30:47;;;;;;;;;7.75;7.25;;;;;21.19;36.70;100322.50;5079249;28;45271;-58
2022/04/25 02:33:12;;;;;;;;;8.25;6.50;;;;;21.20;36.44;100318.91;5079416;27;45347;-58
2022/04/25 02:35:38;;;;;;;;;8.00;8.00;;;;;21.23;36.73;100328.41;5079321;27;45644;-58
2022/04/25 02:38:03;;;;;;;;;7.00;7.00;;;;;21.19;36.41;100322.50;5078820;27;49912;-57
2022/04/25 02:40:28;;;;;;;;;7.25;7.25;;;;;21.22;36.21;100326.72;5079155;27;45299;-58
2022/04/25 02:42:54;;;;;;;;;7.00;7.00;;;;;21.20;36.48;100324.19;5060968;28;45522;-58
2022/04/25 02:45:19;;;;;;;;;5.25;5.25;;;;;21.20;36.37;100329.47;5061392;28;45496;-58
2022/04/25 02:47:44;;;;;;;;;8.00;5.75;;;;;21.20;36.43;100324.19;5078750;28;46012;-58
2022/04/25 02:50:10;;;;;;;;;8.00;8.00;;;;;21.22;36.51;100327.53;5078845;28;45478;-58
2022/04/25 02:52:35;;;;;;;;;10.00;6.25;;;;;21.22;36.54;100329.34;5060937;28;45347;-58
2022/04/25 02:55:00;;;;;;;;;8.25;6.50;;;;;21.21;36.67;100336.44;5079263;28;45539;-58
2022/04/25 02:57:25;;;;;;;;;8.00;8.00;;;;;21.21;36.21;100336.44;5078696;27;46139;-57
2022/04/25 02:59:51;;;;;;;;;8.50;6.00;;;;;21.20;36.38;100323.34;5079048;28;45235;-57
2022/04/25 03:02:17;;;;;;;;;7.00;7.00;;;;;21.20;36.61;100326.81;5078947;28;45254;-57
2022/04/25 03:04:43;;;;;;;;;8.00;8.00;;;;;21.19;36.37;100333.03;5079020;28;45532;-57
2022/04/25 03:07:08;;;;;;;;;9.00;7.00;;;;;21.20;36.47;100340.00;5078603;28;45348;-57
2022/04/25 03:09:33;;;;;;;;;8.00;8.00;;;;;21.20;36.48;100340.00;5078588;28;45345;-57
2022/04/25 03:11:59;;;;;;;;;6.75;6.75;;;;;21.18;36.42;100334.00;5078340;28;45395;-58
2022/04/25 03:14:26;;;;;;;;;7.00;7.00;;;;;21.20;36.14;100339.16;5079204;28;45561;-58
2022/04/25 03:16:51;;;;;;;;;8.25;8.00;;;;;21.17;36.20;100333.13;5060632;28;48302;-58
2022/04/25 03:19:17;;;;;;;;;6.25;5.00;;;;;21.21;36.54;100340.84;5078379;27;45436;-57
2022/04/25 03:21:43;;;;;;;;;6.75;5.50;;;;;21.19;36.47;100332.19;5078638;27;45289;-58
2022/04/25 03:24:08;;;;;;;;;8.00;8.00;;;;;21.17;36.67;100340.19;5078749;28;45272;-57
2022/04/25 03:26:34;;;;;;;;;7.50;6.25;;;;;21.17;36.79;100335.75;5078248;27;46183;-57
2022/04/25 03:28:59;;;;;;;;;4.25;4.25;;;;;21.19;36.71;100338.31;5078250;28;45305;-58
2022/04/25 03:31:24;;;;;;;;;7.75;6.75;;;;;21.17;36.42;100332.28;5078738;28;45281;-58
2022/04/25 03:33:50;;;;;;;;;5.00;3.50;;;;;21.19;36.46;100342.72;5077914;28;45576;-58
2022/04/25 03:36:15;;;;;;;;;7.25;7.25;;;;;21.17;36.62;100348.94;5077116;28;53290;-58
2022/04/25 03:38:42;;;;;;;;;7.00;7.00;;;;;21.17;36.69;100345.47;5078112;28;45331;-58
2022/04/25 03:41:07;;;;;;;;;9.00;7.00;;;;;21.17;36.67;100346.31;5078134;28;45304;-58
2022/04/25 03:43:34;;;;;;;;;7.50;7.50;;;;;21.18;36.65;100349.81;5078121;28;45278;-58
2022/04/25 03:46:00;;;;;;;;;9.00;7.00;;;;;21.17;36.81;100350.75;5059694;28;48144;-57
2022/04/25 03:48:25;;;;;;;;;7.00;7.00;;;;;21.17;36.59;100358.66;5078078;28;45285;-58
2022/04/25 03:50:50;;;;;;;;;7.00;7.00;;;;;21.17;36.41;100356.00;5077936;27;47084;-57
2022/04/25 03:53:16;;;;;;;;;6.25;6.00;;;;;21.17;36.82;100353.38;5078177;28;45695;-57
2022/04/25 03:58:26;;;;;;;;;7.50;6.25;;;;;21.15;36.21;100364.03;5078038;27;45974;-57
2022/04/25 04:00:51;;;;;;;;;5.00;5.00;;;;;21.14;36.62;100357.06;5077872;28;45320;-57
2022/04/25 04:03:18;;;;;;;;;7.75;6.00;;;;;21.16;36.33;100362.22;5078058;28;45402;-57
2022/04/25 04:05:48;;;;;;;;;7.50;6.00;;;;;21.16;36.52;100356.97;5077506;28;46680;-58
2022/04/25 04:08:13;;;;;;;;;8.25;7.00;;;;;21.15;36.60;100364.03;5059411;28;45393;-57
2022/04/25 04:10:39;;;;;;;;;6.00;6.00;;;;;21.13;36.62;100363.28;5077589;28;45267;-57
2022/04/25 04:13:05;;;;;;;;;6.00;6.00;;;;;21.14;36.75;100372.88;5077999;27;45267;-57
2022/04/25 04:15:31;;;;;;;;;6.50;6.50;;;;;21.14;36.66;100362.34;5077313;28;46267;-57
2022/04/25 04:17:57;;;;;;;;;7.00;7.00;;;;;21.15;36.57;100368.44;5077981;28;45410;-57
2022/04/25 04:20:22;;;;;;;;;7.75;7.00;;;;;21.13;36.43;100372.97;5077608;28;45202;-57
2022/04/25 04:22:47;;;;;;;;;8.00;8.00;;;;;21.09;36.32;100363.59;5058984;28;49132;-57
2022/04/25 04:25:13;;;;;;;;;5.00;5.00;;;;;21.15;36.70;100371.06;5077301;28;45376;-57
2022/04/25 04:27:41;;;;;;;;;6.50;4.25;;;;;21.14;36.44;100378.16;5077210;28;45335;-58
2022/04/25 04:30:10;;;;;;;;;5.25;5.25;;;;;21.14;36.59;100378.16;5077214;28;45281;-57
2022/04/25 04:32:38;;;;;;;;;6.00;6.00;;;;;21.13;36.43;100373.81;5077486;28;45311;-57
2022/04/25 04:35:09;;;;;;;;;6.25;6.25;;;;;21.15;36.52;100384.25;5077013;28;46288;-58
2022/04/25 04:37:36;;;;;;;;;7.00;6.50;;;;;21.12;36.27;100379.16;5077047;28;45299;-57
2022/04/25 04:42:47;;;;;;;;;7.00;6.50;;;;;21.12;36.80;100394.97;5077195;28;45347;-58
2022/04/25 04:45:13;;;;;;;;;7.25;7.00;;;;;21.13;36.55;100397.53;5076699;28;46539;-57
2022/04/25 04:47:39;;;;;;;;;7.00;6.00;;;;;21.12;36.57;100406.38;5076662;28;45415;-57
2022/04/25 04:50:08;;;;;;;;;5.75;5.75;;;;;21.12;36.63;100405.53;5077093;28;45382;-57
2022/04/25 04:52:33;;;;;;;;;5.50;5.50;;;;;21.13;36.89;100401.94;5077088;28;45378;-58
2022/04/25 04:54:59;;;;;;;;;6.75;6.75;;;;;21.11;36.36;100409.13;5077155;28;46071;-58
2022/04/25 04:57:24;;;;;;;;;5.50;5.50;;;;;21.13;36.68;100412.50;5076772;28;45319;-57
2022/04/25 04:59:49;;;;;;;;;6.25;6.00;;;;;21.12;36.88;100411.66;5076853;28;45384;-57
2022/04/25 05:02:16;;;;;;;;;5.50;5.50;;;;;21.11;36.90;100417.88;5077324;28;45387;-58
2022/04/25 05:04:42;;;;;;;;;6.75;6.25;;;;;21.11;36.72;100424.94;5076851;28;46273;-60
2022/04/25 05:07:08;;;;;;;;;6.75;6.75;;;;;21.13;36.56;100425.66;5076855;27;45370;-57
2022/04/25 05:09:33;;;;;;;;;7.75;7.00;;;;;21.11;36.70;100424.94;5076792;28;45260;-58
2022/04/25 05:11:58;;;;;;;;;8.00;5.25;;;;;21.11;36.54;100433.69;5076974;28;45583;-57
2022/04/25 05:14:23;;;;;;;;;5.75;5.75;;;;;21.12;36.40;100438.00;5076460;28;45275;-58
2022/04/25 05:16:49;;;;;;;;;6.00;5.25;;;;;21.10;36.46;100437.25;5076576;28;45387;-58
2022/04/25 05:19:14;;;;;;;;;5.75;5.50;;;;;21.08;36.45;100436.50;5076772;28;45252;-58
2022/04/25 05:21:40;;;;;;;;;6.75;6.00;;;;;21.11;36.71;100440.75;5076820;28;45181;-58
2022/04/25 05:24:06;;;;;;;;;6.50;6.00;;;;;21.09;36.71;100442.63;5076342;28;46127;-58
2022/04/25 05:26:31;;;;;;;;;5.00;5.00;;;;;21.12;36.71;100452.97;5076415;27;46013;-57
2022/04/25 05:28:57;;;;;;;;;7.00;7.00;;;;;21.10;36.85;100449.59;5058639;28;45307;-58
2022/04/25 05:31:23;;;;;;;;;6.75;5.75;;;;;21.08;36.92;100440.94;5058619;28;45542;-58
2022/04/25 05:33:48;;;;;;;;;7.00;7.00;;;;;21.10;36.66;100454.88;5076180;28;46106;-57
2022/04/25 05:36:14;;;;;;;;;7.00;6.00;;;;;21.10;37.12;100452.22;5076168;28;48368;-56
2022/04/25 05:38:40;;;;;;;;;6.00;6.00;;;;;21.10;37.03;100455.69;5076469;28;45446;-58
2022/04/25 05:41:07;;;;;;;;;6.75;5.75;;;;;21.09;36.99;100461.91;5076426;27;45343;-58
2022/04/25 05:43:33;;;;;;;;;6.25;6.25;;;;;21.09;36.94;100455.81;5076433;28;46207;-57
2022/04/25 05:45:58;;;;;;;;;9.00;7.25;;;;;21.06;36.63;100458.63;5076635;28;45226;-59
2022/04/25 05:53:52;;;;;;;;;5.50;5.50;;;;;21.05;37.14;100473.59;5076017;27;45306;-57
2022/04/25 05:56:17;;;;;;;;;6.25;6.25;;;;;21.07;36.89;100476.13;5076227;28;45288;-58
2022/04/25 05:58:42;;;;;;;;;10.25;7.25;;;;;21.07;36.95;100476.97;5078212;28;45200;-58
2022/04/25 06:01:07;;;;;;;;;8.50;7.00;;;;;21.07;36.93;100484.88;5079874;28;45311;-58
2022/04/25 06:03:33;;;;;;;;;6.00;6.00;;;;;21.06;36.83;100484.97;5079616;28;46042;-58
2022/04/25 06:05:59;;;;;;;;;7.75;7.00;;;;;21.08;36.93;100496.28;5079836;27;45512;-57
2022/04/25 06:08:24;;;;;;;;;8.25;8.25;;;;;21.08;36.95;100501.53;5079464;28;45193;-57
2022/04/25 06:10:49;;;;;;;;;8.25;8.25;;;;;21.09;37.03;100501.44;5079583;28;45237;-58
2022/04/25 06:13:15;;;;;;;;;9.00;8.75;;;;;21.09;36.88;100506.69;5079378;28;45553;-58
2022/04/25 06:15:40;;;;;;;;;11.75;8.00;;;;;21.10;37.03;100507.56;5079250;28;45248;-58
2022/04/25 06:18:05;;;;;;;;;10.75;10.75;;;;;21.08;37.05;100499.75;5079342;28;45442;-58
2022/04/25 06:20:31;;;;;;;;;15.50;11.50;;;;;21.08;37.23;100499.75;5079715;28;45342;-59
2022/04/25 06:22:59;;;;;;;;;11.50;10.00;;;;;21.11;36.65;100511.91;5059697;28;46216;-57
2022/04/25 06:25:29;;;;;;;;;9.25;9.25;;;;;21.11;37.13;100509.25;5079177;28;45855;-59
2022/04/25 06:27:57;;;;;;;;;11.00;10.75;;;;;21.09;37.15;100500.59;5069621;28;45439;-58
2022/04/25 06:30:23;;;;;;;;;11.25;10.50;;;;;21.09;36.95;100506.69;5059098;28;45190;-57
2022/04/25 06:32:50;;;;;;;;;10.00;10.00;;;;;21.12;36.98;100508.28;5058764;28;46170;-58
2022/04/25 06:35:15;;;;;;;;;12.75;12.75;;;;;21.10;36.55;100508.41;5058683;28;45428;-57
2022/04/25 06:37:41;;;;;;;;;12.50;9.25;;;;;21.11;37.08;100520.63;5058840;28;45336;-58
2022/04/25 06:40:07;;;;;;;;;17.00;13.00;;;;;21.10;37.04;100518.09;5058910;28;45473;-57
2022/04/25 06:42:32;;;;;;;;;13.00;11.00;;;;;21.12;37.11;100519.69;5057774;28;45233;-58
2022/04/25 06:44:58;;;;;;;;;11.25;10.25;;;;;21.11;36.81;100519.81;5058627;28;45341;-58
2022/04/25 06:47:23;;;;;;;;;13.25;11.75;;;;;21.11;37.10;100520.63;5040640;28;45832;-58
2022/04/25 06:49:48;;;;;;;;;14.50;11.75;;;;;21.11;37.11;100531.19;5065119;28;45212;-55
2022/04/25 06:52:15;;;;;;;;;14.25;11.25;;;;;21.12;36.89;100522.34;5078636;28;46029;-63
2022/04/25 06:54:40;;;;;;;;;12.00;12.00;;;;;21.10;37.09;100524.22;5078737;28;45311;-59
2022/04/25 06:57:06;;;;;;;;;17.50;15.25;;;;;21.11;36.46;100531.19;5078947;28;45354;-59
2022/04/25 06:59:31;;;;;;;;;15.00;15.00;;;;;21.11;36.77;100527.72;5079296;28;45213;-59
2022/04/25 07:01:57;;;;;;;;;14.25;14.25;;;;;21.10;37.15;100539.19;5078750;28;45914;-59
2022/04/25 07:04:23;;;;;;;;;8.75;8.75;;;;;21.09;36.71;100533.06;5078681;28;45447;-59
2022/04/25 07:06:49;;;;;;;;;14.00;14.00;;;;;21.10;36.97;100533.91;5078688;28;45413;-59
2022/04/25 07:09:14;;;;;;;;;13.50;12.75;;;;;21.10;37.05;100539.19;5078429;28;45307;-59
2022/04/25 07:11:43;;;;;;;;;13.50;11.75;;;;;21.09;36.75;100543.59;5078080;28;45980;-59
2022/04/25 07:14:10;;;;;;;;;16.50;16.50;;;;;21.10;36.56;100539.19;5078367;28;45191;-59
2022/04/25 07:16:36;;;;;;;;;13.50;11.00;;;;;21.08;36.78;100547.16;5078866;28;45293;-59
2022/04/25 07:19:01;;;;;;;;;14.00;12.75;;;;;21.08;37.30;100544.53;5078663;28;45158;-59
2022/04/25 07:29:38;;;;;;;;;29.00;23.00;;;;;21.11;38.92;100554.91;5078075;28;45197;-61
2022/04/25 07:32:04;;;;;;;;;28.50;24.00;;;;;21.10;38.23;100552.38;5077389;28;46556;-62
2022/04/25 07:34:29;;;;;;;;;27.50;25.50;;;;;21.07;37.72;100557.81;5078190;28;45279;-60
2022/04/25 07:36:55;;;;;;;;;34.75;29.50;;;;;21.04;37.59;100553.59;5078204;28;45241;-63
2022/04/25 07:39:21;;;;;;;;;35.25;31.25;;;;;21.01;37.05;100565.16;5078292;28;45201;-60
2022/04/25 07:41:48;;;;;;;;;28.25;28.25;;;;;20.99;37.40;100569.69;5077717;28;45509;-60
2022/04/25 07:44:14;;;;;;;;;31.25;27.25;;;;;20.97;37.42;100568.06;5077960;28;45372;-63
2022/04/25 07:46:40;;;;;;;;;33.25;28.00;;;;;20.94;37.33;100570.91;5078037;28;45333;-60
2022/04/25 07:49:07;;;;;;;;;34.25;29.00;;;;;20.92;37.35;100568.34;5078276;28;45288;-57
2022/04/25 07:51:33;;;;;;;;;36.50;30.00;;;;;20.90;37.08;100570.22;5076847;28;46256;-59
2022/04/25 07:53:58;;;;;;;;;24.50;22.50;;;;;20.88;37.60;100569.50;5077039;28;45368;-57
2022/04/25 07:56:24;;;;;;;;;23.25;22.75;;;;;20.90;37.39;100570.22;5077258;28;45483;-57
2022/04/25 07:58:49;;;;;;;;;22.50;21.00;;;;;20.91;37.70;100577.19;5077209;28;45375;-57
2022/04/25 08:01:14;;;;;;;;;22.25;21.50;;;;;20.92;37.71;100570.16;5076605;28;45918;-58
2022/04/25 08:03:41;;;;;;;;;23.00;20.00;;;;;20.94;37.49;100573.53;5076832;28;45437;-56
2022/04/25 08:06:06;;;;;;;;;19.50;16.00;;;;;20.93;37.66;100574.50;5077368;28;45441;-56
2022/04/25 08:08:32;;;;;;;;;17.75;17.75;;;;;21.00;37.56;100581.88;5077028;28;45303;-57
2022/04/25 08:10:58;;;;;;;;;18.25;18.25;;;;;21.01;37.67;100580.97;5058285;28;47591;-56
2022/04/25 08:18:51;;;;;;;;;22.75;19.75;;;;;21.07;37.90;100589.44;5066779;28;45325;-57
2022/04/25 08:21:17;;;;;;;;;20.75;17.75;;;;;21.10;37.69;100597.16;5066371;28;46096;-54
2022/04/25 08:23:45;;;;;;;;;18.50;16.50;;;;;21.13;37.50;100596.94;5065193;28;45576;-56
2022/04/25 08:26:11;;;;;;;;;19.00;18.75;;;;;21.14;38.12;100602.16;5077517;28;45370;-57
2022/04/25 08:28:36;;;;;;;;;19.50;17.50;;;;;21.16;37.77;100607.31;5077620;28;45374;-55
2022/04/25 08:31:02;;;;;;;;;18.00;17.25;;;;;21.16;37.98;100609.94;5066505;28;46246;-57
2022/04/25 08:33:27;;;;;;;;;23.75;21.25;;;;;21.17;37.30;100607.22;5061985;28;45466;-56
2022/04/25 08:35:52;;;;;;;;;21.00;18.00;;;;;21.17;37.96;100609.00;5031373;28;45278;-53
2022/04/25 08:38:18;;;;;;;;;20.25;18.50;;;;;21.17;37.59;100619.56;5068317;28;45497;-56
2022/04/25 08:40:44;;;;;;;;;24.25;22.50;;;;;21.17;37.87;100620.38;5073790;28;46147;-55
2022/04/25 08:43:11;;;;;;;;;17.25;16.75;;;;;21.20;37.73;100619.38;5076785;28;45757;-55
2022/04/25 08:45:38;;;;;;;;;20.50;18.00;;;;;21.20;37.54;100614.09;5058415;28;45371;-58
2022/04/25 08:48:04;;;;;;;;;22.00;20.00;;;;;21.20;37.31;100621.16;5076431;28;46850;-58
2022/04/25 08:50:30;;;;;;;;;18.00;17.75;;;;;21.21;37.70;100625.47;5076063;28;45485;-58
2022/04/25 08:52:57;;;;;;;;;20.75;19.25;;;;;21.20;37.69;100623.78;5057880;28;45989;-57
2022/04/25 08:55:23;;;;;;;;;22.25;21.00;;;;;21.19;37.16;100625.59;5076736;28;45282;-56
2022/04/25 08:57:51;;;;;;;;;25.75;24.00;;;;;21.20;36.91;100629.06;5077100;28;45228;-56
2022/04/25 09:00:17;;;;;;;;;27.50;25.75;;;;;21.15;36.42;100632.84;5076734;28;45697;-56
2022/04/25 09:02:44;;;;;;;;;22.25;19.50;;;;;21.13;36.05;100633.84;5076777;28;46028;-56
2022/04/25 09:05:11;;;;;;;;;26.50;24.00;;;;;21.09;36.52;100629.72;5077145;28;45439;-56
2022/04/25 09:07:37;;;;;;;;;23.75;23.75;;;;;21.07;36.21;100628.97;5075886;28;45532;-55
2022/04/25 09:10:08;;;;;;;;;27.25;26.25;;;;;21.03;36.14;100628.31;5075715;28;46979;-56
2022/04/25 09:12:33;;;;;;;;;24.75;23.00;;;;;21.03;36.48;100627.44;5076020;28;46007;-57
2022/04/25 09:14:59;;;;;;;;;23.50;22.75;;;;;21.01;36.27;100624.91;5058314;28;45525;-58
2022/04/25 09:17:24;;;;;;;;;21.50;20.25;;;;;20.99;36.11;100627.66;5076593;28;45592;-58
2022/04/25 09:19:49;;;;;;;;;29.00;25.25;;;;;20.96;35.79;100633.09;5076432;28;46266;-58
2022/04/25 09:22:32;;;;;;;;;27.75;25.50;;;;;20.93;35.77;100632.44;5076145;28;45358;-58
2022/04/25 09:25:16;;;;;;;;;23.75;22.00;;;;;20.92;35.99;100622.84;5076550;28;45396;-60
2022/04/25 09:27:43;;;;;;;;;27.00;23.75;;;;;20.92;36.11;100638.66;5077013;28;45296;-63
2022/04/25 09:30:21;;;;;;;;;27.75;25.00;;;;;20.90;36.25;100633.44;5076535;28;46685;-60
2022/04/25 09:32:47;;;;;;;;;25.00;24.25;;;;;20.88;36.23;100630.09;5077060;28;45832;-60
2022/04/25 09:35:32;;;;;;;;;22.00;20.00;;;;;20.87;36.13;100633.66;5080543;27;45343;-60
2022/04/25 09:38:03;;;;;;;;;27.25;27.25;;;;;20.86;36.15;100642.50;5080236;28;45356;-56
2022/04/25 09:40:30;;;;;;;;;60.50;47.50;;;;;20.86;35.82;100653.03;5079885;28;46177;-58
2022/04/25 09:43:14;;;;;;;;;216.75;180.00;;;;;20.86;36.15;100647.78;5079781;28;45386;-57
2022/04/25 09:45:42;;;;;;;;;377.80;304.80;;;;;20.88;36.59;100647.66;5079364;28;45444;-57
2022/04/25 09:48:15;;;;;;;;;343.50;274.75;;;;;20.88;36.61;100645.91;5061792;28;45537;-59
2022/04/25 09:50:42;;;;;;;;;288.00;233.25;;;;;20.88;36.46;100645.03;5079965;28;46924;-59
2022/04/25 09:53:09;;;;;;;;;268.25;220.00;;;;;20.87;36.43;100638.06;5079594;28;45406;-59
2022/04/25 09:55:37;;;;;;;;;216.50;181.75;;;;;20.90;36.15;100644.00;5080040;28;45398;-60
2022/04/25 09:58:17;;;;;;;;;207.25;172.00;;;;;20.91;36.50;100658.84;5079960;28;45273;-59
2022/04/25 10:00:43;;;;;;;;;176.50;147.50;;;;;20.90;36.29;100654.53;5079829;28;46876;-59
2022/04/25 10:03:09;;;;;;;;;178.25;151.25;;;;;20.89;36.52;100644.94;5079506;27;45326;-58
2022/04/25 10:05:49;;;;;;;;;164.00;137.25;;;;;20.94;36.47;100653.41;5061536;27;45260;-59
2022/04/25 10:08:19;;;;;;;;;152.00;129.25;;;;;20.96;35.96;100650.69;5079993;28;45501;-60
2022/04/25 10:10:50;;;;;;;;;147.75;127.75;;;;;20.97;36.54;100653.25;5079469;28;45420;-60
2022/04/25 10:13:16;;;;;;;;;140.50;117.75;;;;;20.98;35.90;100647.03;5079682;28;45812;-57
2022/04/25 10:15:43;;;;;;;;;142.75;119.25;;;;;20.99;35.96;100653.13;5079791;27;45403;-59
2022/04/25 10:18:09;;;;;;;;;123.75;107.50;;;;;21.01;36.23;100656.53;5079615;28;45591;-60
2022/04/25 10:20:36;;;;;;;;;134.75;106.75;;;;;21.02;35.96;100658.22;5079095;27;46405;-60
2022/04/25 10:23:09;;;;;;;;;119.25;100.75;;;;;21.03;36.00;100667.84;5079171;28;45380;-58
2022/04/25 10:25:36;;;;;;;;;119.50;98.00;;;;;21.04;36.40;100655.50;5079363;27;45224;-57
2022/04/25 10:28:09;;;;;;;;;98.50;80.25;;;;;21.05;36.48;100662.47;5061237;28;45257;-57
2022/04/25 10:30:38;;;;;;;;;108.00;86.25;;;;;21.05;36.28;100665.09;5079050;28;46240;-58
2022/04/25 10:33:49;;;;;;;;;85.75;73.50;;;;;21.06;36.47;100659.72;5061141;28;45438;-59
2022/04/25 10:36:36;;;;;;;;;82.25;73.00;;;;;21.07;35.92;100661.41;5058750;28;45406;-58
2022/04/25 10:39:12;;;;;;;;;85.50;68.50;;;;;21.07;36.24;100661.41;5079223;28;45520;-58
2022/04/25 10:44:53;;;;;;;;;72.75;55.00;;;;;21.10;36.19;100655.13;5078505;28;45469;-58
2022/04/25 10:47:20;;;;;;;;;75.25;55.75;;;;;21.12;36.24;100661.13;5078838;27;45354;-57
2022/04/25 10:50:07;;;;;;;;;68.50;51.50;;;;;21.13;36.25;100660.19;5079588;28;45573;-58
2022/04/25 10:52:33;;;;;;;;;61.25;45.50;;;;;21.14;35.73;100657.50;5078811;27;46522;-58
2022/04/25 10:55:12;;;;;;;;;36.75;32.25;;;;;21.12;35.24;100658.50;5078800;28;45902;-59
2022/04/25 10:58:07;;;;;;;;;32.00;27.50;;;;;21.09;35.14;100661.34;5078979;28;45330;-56
2022/04/25 11:03:23;;;;;;;;;22.25;20.00;;;;;21.00;34.13;100658.31;5078503;28;45351;-56
2022/04/25 11:05:54;;;;;;;;;20.50;20.50;;;;;20.95;34.17;100657.75;5077491;28;46059;-51
2022/04/25 11:08:20;;;;;;;;;21.50;20.75;;;;;20.91;33.87;100652.75;5078533;28;45371;-57
2022/04/25 11:11:16;;;;;;;;;21.67;18.67;;;;;20.87;34.09;100659.13;5078890;28;45661;-57
2022/04/25 11:13:50;;;;;;;;;25.75;21.00;;;;;20.85;33.89;100659.25;5078260;28;46975;-61
2022/04/25 11:16:22;;;;;;;;;29.25;23.25;;;;;20.84;33.79;100660.19;5078775;28;45800;-57
2022/04/25 11:19:09;;;;;;;;;26.50;21.25;;;;;20.82;33.72;100662.03;5078890;28;45374;-56
2022/04/25 11:21:40;;;;;;;;;18.25;16.75;;;;;20.82;34.05;100662.91;5078680;28;45346;-64
2022/04/25 11:24:29;;;;;;;;;17.50;17.25;;;;;20.81;33.79;100660.34;5078363;27;45373;-57
2022/04/25 11:26:56;;;;;;;;;13.25;13.25;;;;;20.81;33.88;100655.09;5078316;28;45900;-57
2022/04/25 11:29:22;;;;;;;;;17.50;16.25;;;;;20.83;33.80;100658.47;5078304;28;45284;-61
2022/04/25 11:31:47;;;;;;;;;20.25;17.25;;;;;20.83;33.74;100651.44;5060722;28;45544;-58
2022/04/25 11:34:15;;;;;;;;;29.25;19.25;;;;;20.87;33.77;100654.72;5077928;28;52901;-57
2022/04/25 11:36:43;;;;;;;;;20.75;17.50;;;;;20.88;33.39;100655.56;5078197;27;45844;-57
2022/04/25 11:41:57;;;;;;;;;21.25;17.50;;;;;20.84;33.48;100649.63;5078486;28;45375;-55
2022/04/25 11:44:22;;;;;;;;;23.00;18.50;;;;;20.85;33.38;100652.16;5077821;28;47149;-57
2022/04/25 11:46:49;;;;;;;;;17.75;16.00;;;;;20.85;33.16;100654.81;5078308;28;45201;-49
2022/04/25 11:49:29;;;;;;;;;21.75;18.75;;;;;20.84;33.38;100660.19;5078031;28;45347;-56
2022/04/25 11:51:58;;;;;;;;;19.00;13.50;;;;;20.92;33.64;100652.66;5078191;27;45383;-54
2022/04/25 11:54:24;;;;;;;;;17.50;15.00;;;;;21.00;32.58;100646.94;5077802;27;47099;-54